sensor_id;sensor_type;location;lat;lon;timestamp;P1;durP1;ratioP1;P2;durP2;ratioP2
23718;SDS011;43322;52.230;5.702;2023-05-10T00:02:00;21.15;;;15.55;;
23718;SDS011;43322;52.230;5.702;2023-05-10T00:04:28;20.80;;;15.18;;
23718;SDS011;43322;52.230;5.702;2023-05-10T00:06:55;22.63;;;16.15;;
23718;SDS011;43322;52.230;5.702;2023-05-10T00:09:21;21.40;;;15.93;;
23718;SDS011;43322;52.230;5.702;2023-05-10T00:11:48;23.95;;;16.02;;
23718;SDS011;43322;52.230;5.702;2023-05-10T00:14:15;22.92;;;16.02;;
23718;SDS011;43322;52.230;5.702;2023-05-10T00:16:42;27.50;;;18.08;;
23718;SDS011;43322;52.230;5.702;2023-05-10T00:19:08;25.42;;;17.80;;
23718;SDS011;43322;52.230;5.702;2023-05-10T00:21:36;26.27;;;18.02;;
23718;SDS011;43322;52.230;5.702;2023-05-10T00:24:03;26.38;;;19.33;;
23718;SDS011;43322;52.230;5.702;2023-05-10T00:26:30;26.77;;;17.83;;
23718;SDS011;43322;52.230;5.702;2023-05-10T00:28:57;27.02;;;18.50;;
23718;SDS011;43322;52.230;5.702;2023-05-10T00:31:24;27.42;;;18.85;;
23718;SDS011;43322;52.230;5.702;2023-05-10T00:33:51;28.70;;;18.38;;
23718;SDS011;43322;52.230;5.702;2023-05-10T00:36:18;29.70;;;20.38;;
23718;SDS011;43322;52.230;5.702;2023-05-10T00:38:47;33.20;;;20.42;;
23718;SDS011;43322;52.230;5.702;2023-05-10T00:41:13;34.08;;;21.00;;
23718;SDS011;43322;52.230;5.702;2023-05-10T00:43:40;35.53;;;21.17;;
23718;SDS011;43322;52.230;5.702;2023-05-10T00:46:07;34.67;;;20.25;;
23718;SDS011;43322;52.230;5.702;2023-05-10T00:48:34;31.38;;;20.25;;
23718;SDS011;43322;52.230;5.702;2023-05-10T00:51:01;33.13;;;19.83;;
23718;SDS011;43322;52.230;5.702;2023-05-10T00:53:28;31.10;;;20.63;;
23718;SDS011;43322;52.230;5.702;2023-05-10T00:55:58;35.60;;;21.70;;
23718;SDS011;43322;52.230;5.702;2023-05-10T00:58:26;32.55;;;21.27;;
23718;SDS011;43322;52.230;5.702;2023-05-10T01:00:55;35.72;;;21.83;;
23718;SDS011;43322;52.230;5.702;2023-05-10T01:03:23;37.17;;;24.10;;
23718;SDS011;43322;52.230;5.702;2023-05-10T01:05:50;36.75;;;21.98;;
23718;SDS011;43322;52.230;5.702;2023-05-10T01:08:17;41.03;;;24.13;;
23718;SDS011;43322;52.230;5.702;2023-05-10T01:10:44;40.30;;;23.08;;
23718;SDS011;43322;52.230;5.702;2023-05-10T01:13:15;39.15;;;23.80;;
23718;SDS011;43322;52.230;5.702;2023-05-10T01:15:57;46.55;;;26.58;;
23718;SDS011;43322;52.230;5.702;2023-05-10T01:18:24;48.13;;;27.13;;
23718;SDS011;43322;52.230;5.702;2023-05-10T01:20:59;50.60;;;27.02;;
23718;SDS011;43322;52.230;5.702;2023-05-10T01:23:44;52.60;;;27.08;;
23718;SDS011;43322;52.230;5.702;2023-05-10T01:29:21;57.33;;;29.20;;
23718;SDS011;43322;52.230;5.702;2023-05-10T01:32:17;51.67;;;27.83;;
23718;SDS011;43322;52.230;5.702;2023-05-10T01:34:54;51.78;;;27.05;;
23718;SDS011;43322;52.230;5.702;2023-05-10T01:37:29;57.60;;;28.45;;
23718;SDS011;43322;52.230;5.702;2023-05-10T01:40:03;61.80;;;30.70;;
23718;SDS011;43322;52.230;5.702;2023-05-10T01:42:40;60.28;;;30.10;;
23718;SDS011;43322;52.230;5.702;2023-05-10T01:45:14;68.68;;;32.33;;
23718;SDS011;43322;52.230;5.702;2023-05-10T01:47:48;61.72;;;30.73;;
23718;SDS011;43322;52.230;5.702;2023-05-10T01:50:19;68.90;;;31.20;;
23718;SDS011;43322;52.230;5.702;2023-05-10T01:52:53;62.92;;;31.80;;
23718;SDS011;43322;52.230;5.702;2023-05-10T01:55:21;64.40;;;31.83;;
23718;SDS011;43322;52.230;5.702;2023-05-10T01:57:53;70.15;;;34.03;;
23718;SDS011;43322;52.230;5.702;2023-05-10T02:00:25;77.82;;;34.53;;
23718;SDS011;43322;52.230;5.702;2023-05-10T02:02:55;73.00;;;34.55;;
23718;SDS011;43322;52.230;5.702;2023-05-10T02:05:23;78.53;;;36.47;;
23718;SDS011;43322;52.230;5.702;2023-05-10T02:07:50;76.10;;;36.28;;
23718;SDS011;43322;52.230;5.702;2023-05-10T02:10:18;84.53;;;38.88;;
23718;SDS011;43322;52.230;5.702;2023-05-10T02:12:46;80.50;;;38.35;;
23718;SDS011;43322;52.230;5.702;2023-05-10T02:15:15;84.22;;;39.58;;
23718;SDS011;43322;52.230;5.702;2023-05-10T02:17:46;95.40;;;40.53;;
23718;SDS011;43322;52.230;5.702;2023-05-10T02:20:14;86.85;;;37.88;;
23718;SDS011;43322;52.230;5.702;2023-05-10T02:22:42;90.20;;;41.25;;
23718;SDS011;43322;52.230;5.702;2023-05-10T02:25:11;86.32;;;39.55;;
23718;SDS011;43322;52.230;5.702;2023-05-10T02:27:40;95.03;;;41.83;;
23718;SDS011;43322;52.230;5.702;2023-05-10T02:30:09;88.85;;;40.58;;
23718;SDS011;43322;52.230;5.702;2023-05-10T02:32:37;95.43;;;42.53;;
23718;SDS011;43322;52.230;5.702;2023-05-10T02:35:05;90.50;;;42.45;;
23718;SDS011;43322;52.230;5.702;2023-05-10T02:37:34;94.22;;;40.85;;
23718;SDS011;43322;52.230;5.702;2023-05-10T02:40:02;96.88;;;43.30;;
23718;SDS011;43322;52.230;5.702;2023-05-10T02:42:32;98.88;;;43.15;;
23718;SDS011;43322;52.230;5.702;2023-05-10T02:45:02;91.78;;;41.00;;
23718;SDS011;43322;52.230;5.702;2023-05-10T02:47:33;90.80;;;41.42;;
23718;SDS011;43322;52.230;5.702;2023-05-10T02:50:00;87.10;;;40.03;;
23718;SDS011;43322;52.230;5.702;2023-05-10T02:52:28;99.50;;;42.45;;
23718;SDS011;43322;52.230;5.702;2023-05-10T02:55:03;98.05;;;42.65;;
23718;SDS011;43322;52.230;5.702;2023-05-10T02:57:32;93.47;;;43.33;;
23718;SDS011;43322;52.230;5.702;2023-05-10T03:00:00;86.50;;;41.17;;
23718;SDS011;43322;52.230;5.702;2023-05-10T03:02:28;94.72;;;42.63;;
23718;SDS011;43322;52.230;5.702;2023-05-10T03:04:55;93.22;;;42.42;;
23718;SDS011;43322;52.230;5.702;2023-05-10T03:07:22;98.65;;;43.25;;
23718;SDS011;43322;52.230;5.702;2023-05-10T03:09:49;98.55;;;44.17;;
23718;SDS011;43322;52.230;5.702;2023-05-10T03:12:19;87.95;;;40.58;;
23718;SDS011;43322;52.230;5.702;2023-05-10T03:14:56;92.20;;;42.05;;
23718;SDS011;43322;52.230;5.702;2023-05-10T03:17:29;92.90;;;42.80;;
23718;SDS011;43322;52.230;5.702;2023-05-10T03:20:01;98.80;;;42.63;;
23718;SDS011;43322;52.230;5.702;2023-05-10T03:22:30;92.03;;;42.47;;
23718;SDS011;43322;52.230;5.702;2023-05-10T03:25:00;95.40;;;42.65;;
23718;SDS011;43322;52.230;5.702;2023-05-10T03:27:33;94.57;;;41.92;;
23718;SDS011;43322;52.230;5.702;2023-05-10T03:30:01;97.03;;;42.75;;
23718;SDS011;43322;52.230;5.702;2023-05-10T03:32:28;98.18;;;42.92;;
23718;SDS011;43322;52.230;5.702;2023-05-10T03:34:56;89.57;;;40.88;;
23718;SDS011;43322;52.230;5.702;2023-05-10T03:37:23;94.22;;;41.63;;
23718;SDS011;43322;52.230;5.702;2023-05-10T03:39:50;89.68;;;40.65;;
23718;SDS011;43322;52.230;5.702;2023-05-10T03:42:16;92.47;;;39.42;;
23718;SDS011;43322;52.230;5.702;2023-05-10T03:44:45;86.47;;;38.90;;
23718;SDS011;43322;52.230;5.702;2023-05-10T03:47:11;93.80;;;39.97;;
23718;SDS011;43322;52.230;5.702;2023-05-10T03:49:38;95.97;;;41.50;;
23718;SDS011;43322;52.230;5.702;2023-05-10T03:52:04;97.32;;;41.05;;
23718;SDS011;43322;52.230;5.702;2023-05-10T03:54:31;90.15;;;38.95;;
23718;SDS011;43322;52.230;5.702;2023-05-10T03:56:58;96.35;;;40.50;;
23718;SDS011;43322;52.230;5.702;2023-05-10T03:59:25;90.78;;;39.22;;
23718;SDS011;43322;52.230;5.702;2023-05-10T04:01:53;97.20;;;41.00;;
23718;SDS011;43322;52.230;5.702;2023-05-10T04:04:20;99.55;;;41.00;;
23718;SDS011;43322;52.230;5.702;2023-05-10T04:06:48;92.90;;;39.33;;
23718;SDS011;43322;52.230;5.702;2023-05-10T04:09:14;104.03;;;41.13;;
23718;SDS011;43322;52.230;5.702;2023-05-10T04:11:42;103.38;;;41.60;;
23718;SDS011;43322;52.230;5.702;2023-05-10T04:14:09;107.10;;;42.17;;
23718;SDS011;43322;52.230;5.702;2023-05-10T04:16:35;101.85;;;41.17;;
23718;SDS011;43322;52.230;5.702;2023-05-10T04:19:03;101.28;;;39.97;;
23718;SDS011;43322;52.230;5.702;2023-05-10T04:21:30;112.32;;;44.13;;
23718;SDS011;43322;52.230;5.702;2023-05-10T04:23:57;113.15;;;42.42;;
23718;SDS011;43322;52.230;5.702;2023-05-10T04:26:24;105.03;;;40.67;;
23718;SDS011;43322;52.230;5.702;2023-05-10T04:28:51;98.90;;;39.78;;
23718;SDS011;43322;52.230;5.702;2023-05-10T04:31:18;111.82;;;40.90;;
23718;SDS011;43322;52.230;5.702;2023-05-10T04:33:44;108.85;;;42.13;;
23718;SDS011;43322;52.230;5.702;2023-05-10T04:36:12;107.60;;;41.28;;
23718;SDS011;43322;52.230;5.702;2023-05-10T04:38:39;106.93;;;41.22;;
23718;SDS011;43322;52.230;5.702;2023-05-10T04:41:06;115.03;;;42.90;;
23718;SDS011;43322;52.230;5.702;2023-05-10T04:43:33;107.53;;;41.47;;
23718;SDS011;43322;52.230;5.702;2023-05-10T04:46:00;106.55;;;41.47;;
23718;SDS011;43322;52.230;5.702;2023-05-10T04:48:27;107.28;;;41.22;;
23718;SDS011;43322;52.230;5.702;2023-05-10T04:50:54;112.68;;;43.58;;
23718;SDS011;43322;52.230;5.702;2023-05-10T04:53:22;115.07;;;41.88;;
23718;SDS011;43322;52.230;5.702;2023-05-10T04:55:49;111.43;;;42.20;;
23718;SDS011;43322;52.230;5.702;2023-05-10T04:58:16;120.57;;;43.88;;
23718;SDS011;43322;52.230;5.702;2023-05-10T05:00:42;113.18;;;42.50;;
23718;SDS011;43322;52.230;5.702;2023-05-10T05:03:09;113.50;;;40.83;;
23718;SDS011;43322;52.230;5.702;2023-05-10T05:05:36;123.30;;;43.13;;
23718;SDS011;43322;52.230;5.702;2023-05-10T05:08:03;116.80;;;42.88;;
23718;SDS011;43322;52.230;5.702;2023-05-10T05:10:31;124.30;;;42.20;;
23718;SDS011;43322;52.230;5.702;2023-05-10T05:12:57;123.32;;;43.35;;
23718;SDS011;43322;52.230;5.702;2023-05-10T05:15:24;125.53;;;42.30;;
23718;SDS011;43322;52.230;5.702;2023-05-10T05:17:51;114.45;;;41.70;;
23718;SDS011;43322;52.230;5.702;2023-05-10T05:20:18;121.70;;;40.13;;
23718;SDS011;43322;52.230;5.702;2023-05-10T05:22:44;116.28;;;41.90;;
23718;SDS011;43322;52.230;5.702;2023-05-10T05:25:11;107.85;;;38.65;;
23718;SDS011;43322;52.230;5.702;2023-05-10T05:27:39;118.30;;;41.88;;
23718;SDS011;43322;52.230;5.702;2023-05-10T05:30:06;127.60;;;42.05;;
23718;SDS011;43322;52.230;5.702;2023-05-10T05:32:34;125.60;;;41.95;;
23718;SDS011;43322;52.230;5.702;2023-05-10T05:35:00;126.38;;;42.70;;
23718;SDS011;43322;52.230;5.702;2023-05-10T05:37:27;135.93;;;42.45;;
23718;SDS011;43322;52.230;5.702;2023-05-10T05:39:54;123.93;;;41.45;;
23718;SDS011;43322;52.230;5.702;2023-05-10T05:42:20;114.32;;;41.08;;
23718;SDS011;43322;52.230;5.702;2023-05-10T05:44:48;125.90;;;40.47;;
23718;SDS011;43322;52.230;5.702;2023-05-10T05:47:15;125.20;;;41.78;;
23718;SDS011;43322;52.230;5.702;2023-05-10T05:49:42;112.13;;;38.90;;
23718;SDS011;43322;52.230;5.702;2023-05-10T05:52:10;107.55;;;39.58;;
23718;SDS011;43322;52.230;5.702;2023-05-10T05:54:37;118.57;;;41.55;;
23718;SDS011;43322;52.230;5.702;2023-05-10T05:57:04;113.35;;;39.65;;
23718;SDS011;43322;52.230;5.702;2023-05-10T05:59:31;106.32;;;41.10;;
23718;SDS011;43322;52.230;5.702;2023-05-10T06:01:59;106.45;;;40.20;;
23718;SDS011;43322;52.230;5.702;2023-05-10T06:04:25;98.43;;;38.67;;
23718;SDS011;43322;52.230;5.702;2023-05-10T06:06:52;100.53;;;39.65;;
23718;SDS011;43322;52.230;5.702;2023-05-10T06:09:19;97.60;;;37.90;;
23718;SDS011;43322;52.230;5.702;2023-05-10T06:11:46;95.28;;;37.90;;
23718;SDS011;43322;52.230;5.702;2023-05-10T06:14:12;105.32;;;40.88;;
23718;SDS011;43322;52.230;5.702;2023-05-10T06:16:39;94.10;;;38.45;;
23718;SDS011;43322;52.230;5.702;2023-05-10T06:19:07;92.93;;;38.40;;
23718;SDS011;43322;52.230;5.702;2023-05-10T06:21:34;91.22;;;38.65;;
23718;SDS011;43322;52.230;5.702;2023-05-10T06:24:01;93.50;;;38.67;;
23718;SDS011;43322;52.230;5.702;2023-05-10T06:26:28;83.32;;;36.95;;
23718;SDS011;43322;52.230;5.702;2023-05-10T06:28:55;90.43;;;37.92;;
23718;SDS011;43322;52.230;5.702;2023-05-10T06:31:21;93.22;;;36.92;;
23718;SDS011;43322;52.230;5.702;2023-05-10T06:33:48;85.65;;;35.95;;
23718;SDS011;43322;52.230;5.702;2023-05-10T06:36:17;90.32;;;37.15;;
23718;SDS011;43322;52.230;5.702;2023-05-10T06:38:43;92.47;;;36.67;;
23718;SDS011;43322;52.230;5.702;2023-05-10T06:41:10;87.05;;;35.33;;
23718;SDS011;43322;52.230;5.702;2023-05-10T06:43:37;92.80;;;36.25;;
23718;SDS011;43322;52.230;5.702;2023-05-10T06:46:06;94.72;;;36.33;;
23718;SDS011;43322;52.230;5.702;2023-05-10T06:48:32;95.85;;;35.45;;
23718;SDS011;43322;52.230;5.702;2023-05-10T06:50:59;79.90;;;33.15;;
23718;SDS011;43322;52.230;5.702;2023-05-10T06:53:27;85.20;;;34.25;;
23718;SDS011;43322;52.230;5.702;2023-05-10T06:55:54;83.20;;;33.85;;
23718;SDS011;43322;52.230;5.702;2023-05-10T06:58:21;86.70;;;33.10;;
23718;SDS011;43322;52.230;5.702;2023-05-10T07:00:48;81.40;;;34.03;;
23718;SDS011;43322;52.230;5.702;2023-05-10T07:03:15;77.93;;;32.25;;
23718;SDS011;43322;52.230;5.702;2023-05-10T07:05:41;85.57;;;34.67;;
23718;SDS011;43322;52.230;5.702;2023-05-10T07:08:08;80.70;;;34.55;;
23718;SDS011;43322;52.230;5.702;2023-05-10T07:10:36;71.28;;;34.22;;
23718;SDS011;43322;52.230;5.702;2023-05-10T07:13:03;78.22;;;33.92;;
23718;SDS011;43322;52.230;5.702;2023-05-10T07:15:29;73.40;;;33.30;;
23718;SDS011;43322;52.230;5.702;2023-05-10T07:17:56;69.20;;;31.10;;
23718;SDS011;43322;52.230;5.702;2023-05-10T07:20:23;71.47;;;33.00;;
23718;SDS011;43322;52.230;5.702;2023-05-10T07:22:49;72.03;;;32.97;;
23718;SDS011;43322;52.230;5.702;2023-05-10T07:25:16;68.40;;;33.20;;
23718;SDS011;43322;52.230;5.702;2023-05-10T07:27:44;64.40;;;32.80;;
23718;SDS011;43322;52.230;5.702;2023-05-10T07:30:13;71.18;;;31.77;;
23718;SDS011;43322;52.230;5.702;2023-05-10T07:32:40;67.63;;;32.13;;
23718;SDS011;43322;52.230;5.702;2023-05-10T07:35:07;72.30;;;33.20;;
23718;SDS011;43322;52.230;5.702;2023-05-10T07:37:34;65.60;;;32.30;;
23718;SDS011;43322;52.230;5.702;2023-05-10T07:40:01;63.35;;;31.33;;
23718;SDS011;43322;52.230;5.702;2023-05-10T07:42:28;61.13;;;30.85;;
23718;SDS011;43322;52.230;5.702;2023-05-10T07:44:56;54.78;;;29.70;;
23718;SDS011;43322;52.230;5.702;2023-05-10T07:47:23;54.15;;;26.55;;
23718;SDS011;43322;52.230;5.702;2023-05-10T07:49:50;47.10;;;26.42;;
23718;SDS011;43322;52.230;5.702;2023-05-10T07:52:16;44.55;;;24.75;;
23718;SDS011;43322;52.230;5.702;2023-05-10T07:54:43;47.70;;;25.73;;
23718;SDS011;43322;52.230;5.702;2023-05-10T07:57:10;43.97;;;25.45;;
23718;SDS011;43322;52.230;5.702;2023-05-10T07:59:39;52.70;;;28.33;;
23718;SDS011;43322;52.230;5.702;2023-05-10T08:02:07;48.85;;;25.85;;
23718;SDS011;43322;52.230;5.702;2023-05-10T08:04:34;52.80;;;29.00;;
23718;SDS011;43322;52.230;5.702;2023-05-10T08:07:01;54.13;;;29.40;;
23718;SDS011;43322;52.230;5.702;2023-05-10T08:09:27;52.28;;;28.58;;
23718;SDS011;43322;52.230;5.702;2023-05-10T08:11:54;50.63;;;28.10;;
23718;SDS011;43322;52.230;5.702;2023-05-10T08:14:21;42.17;;;25.40;;
23718;SDS011;43322;52.230;5.702;2023-05-10T08:16:48;47.03;;;23.55;;
23718;SDS011;43322;52.230;5.702;2023-05-10T08:19:15;40.35;;;23.02;;
23718;SDS011;43322;52.230;5.702;2023-05-10T08:21:44;37.67;;;22.77;;
23718;SDS011;43322;52.230;5.702;2023-05-10T08:24:11;37.25;;;22.45;;
23718;SDS011;43322;52.230;5.702;2023-05-10T08:26:37;35.40;;;19.58;;
23718;SDS011;43322;52.230;5.702;2023-05-10T08:29:04;35.53;;;19.88;;
23718;SDS011;43322;52.230;5.702;2023-05-10T08:31:31;32.22;;;20.13;;
23718;SDS011;43322;52.230;5.702;2023-05-10T08:33:58;33.55;;;19.55;;
23718;SDS011;43322;52.230;5.702;2023-05-10T08:36:26;31.17;;;19.52;;
23718;SDS011;43322;52.230;5.702;2023-05-10T08:38:53;35.40;;;18.17;;
23718;SDS011;43322;52.230;5.702;2023-05-10T08:41:20;35.22;;;19.50;;
23718;SDS011;43322;52.230;5.702;2023-05-10T08:43:49;29.55;;;16.65;;
23718;SDS011;43322;52.230;5.702;2023-05-10T08:46:17;26.80;;;16.83;;
23718;SDS011;43322;52.230;5.702;2023-05-10T08:48:45;30.95;;;17.13;;
23718;SDS011;43322;52.230;5.702;2023-05-10T08:51:13;25.67;;;16.55;;
23718;SDS011;43322;52.230;5.702;2023-05-10T08:53:42;28.90;;;16.23;;
23718;SDS011;43322;52.230;5.702;2023-05-10T08:56:10;29.23;;;16.60;;
23718;SDS011;43322;52.230;5.702;2023-05-10T08:58:37;24.25;;;16.85;;
23718;SDS011;43322;52.230;5.702;2023-05-10T09:01:04;25.60;;;16.25;;
23718;SDS011;43322;52.230;5.702;2023-05-10T09:03:31;25.48;;;16.08;;
23718;SDS011;43322;52.230;5.702;2023-05-10T09:05:58;26.90;;;15.73;;
23718;SDS011;43322;52.230;5.702;2023-05-10T09:08:25;24.63;;;16.70;;
23718;SDS011;43322;52.230;5.702;2023-05-10T09:10:53;25.77;;;16.73;;
23718;SDS011;43322;52.230;5.702;2023-05-10T09:13:20;25.10;;;16.67;;
23718;SDS011;43322;52.230;5.702;2023-05-10T09:15:49;25.58;;;15.25;;
23718;SDS011;43322;52.230;5.702;2023-05-10T09:18:16;26.63;;;16.05;;
23718;SDS011;43322;52.230;5.702;2023-05-10T09:20:43;24.88;;;15.20;;
23718;SDS011;43322;52.230;5.702;2023-05-10T09:23:10;19.25;;;13.48;;
23718;SDS011;43322;52.230;5.702;2023-05-10T09:25:36;19.92;;;13.93;;
23718;SDS011;43322;52.230;5.702;2023-05-10T09:28:07;20.08;;;13.88;;
23718;SDS011;43322;52.230;5.702;2023-05-10T09:30:34;20.38;;;13.50;;
23718;SDS011;43322;52.230;5.702;2023-05-10T09:33:01;17.38;;;11.88;;
23718;SDS011;43322;52.230;5.702;2023-05-10T09:35:29;19.27;;;12.93;;
23718;SDS011;43322;52.230;5.702;2023-05-10T09:37:57;17.48;;;12.20;;
23718;SDS011;43322;52.230;5.702;2023-05-10T09:40:27;15.52;;;11.93;;
23718;SDS011;43322;52.230;5.702;2023-05-10T09:42:55;17.38;;;12.00;;
23718;SDS011;43322;52.230;5.702;2023-05-10T09:45:25;15.27;;;11.90;;
23718;SDS011;43322;52.230;5.702;2023-05-10T09:47:52;18.33;;;12.02;;
23718;SDS011;43322;52.230;5.702;2023-05-10T09:50:19;14.63;;;11.48;;
23718;SDS011;43322;52.230;5.702;2023-05-10T09:52:47;14.57;;;10.82;;
23718;SDS011;43322;52.230;5.702;2023-05-10T09:55:16;15.82;;;10.70;;
23718;SDS011;43322;52.230;5.702;2023-05-10T09:57:43;15.18;;;11.05;;
23718;SDS011;43322;52.230;5.702;2023-05-10T10:00:10;12.57;;;9.73;;
23718;SDS011;43322;52.230;5.702;2023-05-10T10:02:46;11.57;;;10.20;;
23718;SDS011;43322;52.230;5.702;2023-05-10T10:05:14;13.15;;;10.77;;
23718;SDS011;43322;52.230;5.702;2023-05-10T10:07:41;13.93;;;11.35;;
23718;SDS011;43322;52.230;5.702;2023-05-10T10:10:08;11.60;;;10.23;;
23718;SDS011;43322;52.230;5.702;2023-05-10T10:12:38;17.63;;;10.05;;
23718;SDS011;43322;52.230;5.702;2023-05-10T10:15:06;11.82;;;8.75;;
23718;SDS011;43322;52.230;5.702;2023-05-10T10:17:34;11.88;;;9.10;;
23718;SDS011;43322;52.230;5.702;2023-05-10T10:20:05;11.65;;;9.30;;
23718;SDS011;43322;52.230;5.702;2023-05-10T10:22:32;13.05;;;8.90;;
23718;SDS011;43322;52.230;5.702;2023-05-10T10:24:59;13.10;;;8.80;;
23718;SDS011;43322;52.230;5.702;2023-05-10T10:27:28;12.35;;;8.82;;
23718;SDS011;43322;52.230;5.702;2023-05-10T10:30:04;9.57;;;8.70;;
23718;SDS011;43322;52.230;5.702;2023-05-10T10:32:42;12.70;;;9.18;;
23718;SDS011;43322;52.230;5.702;2023-05-10T10:35:22;8.98;;;8.07;;
23718;SDS011;43322;52.230;5.702;2023-05-10T10:37:49;9.15;;;8.20;;
23718;SDS011;43322;52.230;5.702;2023-05-10T10:40:23;9.80;;;8.80;;
23718;SDS011;43322;52.230;5.702;2023-05-10T10:42:51;11.55;;;9.18;;
23718;SDS011;43322;52.230;5.702;2023-05-10T10:45:19;10.18;;;8.98;;
23718;SDS011;43322;52.230;5.702;2023-05-10T10:47:47;8.98;;;8.07;;
23718;SDS011;43322;52.230;5.702;2023-05-10T10:50:14;9.65;;;7.70;;
23718;SDS011;43322;52.230;5.702;2023-05-10T10:52:43;7.95;;;7.15;;
23718;SDS011;43322;52.230;5.702;2023-05-10T10:55:11;7.28;;;6.68;;
23718;SDS011;43322;52.230;5.702;2023-05-10T10:57:43;7.05;;;6.55;;
23718;SDS011;43322;52.230;5.702;2023-05-10T11:00:21;6.88;;;6.05;;
23718;SDS011;43322;52.230;5.702;2023-05-10T11:02:51;6.47;;;5.88;;
23718;SDS011;43322;52.230;5.702;2023-05-10T11:08:12;7.63;;;6.10;;
23718;SDS011;43322;52.230;5.702;2023-05-10T11:10:49;6.00;;;5.50;;
23718;SDS011;43322;52.230;5.702;2023-05-10T11:13:26;7.78;;;6.28;;
23718;SDS011;43322;52.230;5.702;2023-05-10T11:15:55;6.82;;;6.22;;
23718;SDS011;43322;52.230;5.702;2023-05-10T11:18:24;6.38;;;5.88;;
23718;SDS011;43322;52.230;5.702;2023-05-10T11:20:52;7.30;;;6.60;;
23718;SDS011;43322;52.230;5.702;2023-05-10T11:23:29;8.07;;;6.90;;
23718;SDS011;43322;52.230;5.702;2023-05-10T11:25:57;6.57;;;6.07;;
23718;SDS011;43322;52.230;5.702;2023-05-10T11:28:25;6.60;;;6.07;;
23718;SDS011;43322;52.230;5.702;2023-05-10T11:30:53;7.63;;;6.35;;
23718;SDS011;43322;52.230;5.702;2023-05-10T11:33:21;7.53;;;6.70;;
23718;SDS011;43322;52.230;5.702;2023-05-10T11:35:47;8.63;;;7.13;;
23718;SDS011;43322;52.230;5.702;2023-05-10T11:38:14;7.15;;;6.50;;
23718;SDS011;43322;52.230;5.702;2023-05-10T11:40:42;7.65;;;6.88;;
23718;SDS011;43322;52.230;5.702;2023-05-10T11:43:09;8.85;;;7.32;;
23718;SDS011;43322;52.230;5.702;2023-05-10T11:45:37;7.82;;;7.07;;
23718;SDS011;43322;52.230;5.702;2023-05-10T11:48:04;8.88;;;7.13;;
23718;SDS011;43322;52.230;5.702;2023-05-10T11:50:31;8.68;;;7.88;;
23718;SDS011;43322;52.230;5.702;2023-05-10T11:52:57;9.25;;;8.27;;
23718;SDS011;43322;52.230;5.702;2023-05-10T11:55:24;11.07;;;8.30;;
23718;SDS011;43322;52.230;5.702;2023-05-10T11:57:53;9.35;;;7.93;;
23718;SDS011;43322;52.230;5.702;2023-05-10T12:00:20;9.45;;;7.78;;
23718;SDS011;43322;52.230;5.702;2023-05-10T12:02:47;10.13;;;8.32;;
23718;SDS011;43322;52.230;5.702;2023-05-10T12:05:14;9.38;;;8.23;;
23718;SDS011;43322;52.230;5.702;2023-05-10T12:07:41;8.55;;;7.75;;
23718;SDS011;43322;52.230;5.702;2023-05-10T12:10:09;8.65;;;7.85;;
23718;SDS011;43322;52.230;5.702;2023-05-10T12:12:39;9.65;;;8.63;;
23718;SDS011;43322;52.230;5.702;2023-05-10T12:15:12;12.90;;;9.73;;
23718;SDS011;43322;52.230;5.702;2023-05-10T12:17:43;9.77;;;8.73;;
23718;SDS011;43322;52.230;5.702;2023-05-10T12:20:13;10.20;;;8.45;;
23718;SDS011;43322;52.230;5.702;2023-05-10T12:22:47;9.98;;;7.80;;
23718;SDS011;43322;52.230;5.702;2023-05-10T12:25:15;10.43;;;8.80;;
23718;SDS011;43322;52.230;5.702;2023-05-10T12:27:47;8.50;;;7.70;;
23718;SDS011;43322;52.230;5.702;2023-05-10T12:30:19;8.43;;;7.38;;
23718;SDS011;43322;52.230;5.702;2023-05-10T12:32:47;11.23;;;8.75;;
23718;SDS011;43322;52.230;5.702;2023-05-10T12:35:14;11.00;;;8.30;;
23718;SDS011;43322;52.230;5.702;2023-05-10T12:37:41;9.38;;;8.40;;
23718;SDS011;43322;52.230;5.702;2023-05-10T12:40:09;8.48;;;7.70;;
23718;SDS011;43322;52.230;5.702;2023-05-10T12:42:37;10.98;;;7.63;;
23718;SDS011;43322;52.230;5.702;2023-05-10T12:45:05;8.32;;;7.53;;
23718;SDS011;43322;52.230;5.702;2023-05-10T12:47:34;8.88;;;7.35;;
23718;SDS011;43322;52.230;5.702;2023-05-10T12:50:01;8.40;;;7.60;;
23718;SDS011;43322;52.230;5.702;2023-05-10T12:52:29;8.55;;;7.30;;
23718;SDS011;43322;52.230;5.702;2023-05-10T12:54:57;7.72;;;6.88;;
23718;SDS011;43322;52.230;5.702;2023-05-10T12:57:24;6.30;;;5.70;;
23718;SDS011;43322;52.230;5.702;2023-05-10T12:59:52;7.10;;;6.55;;
23718;SDS011;43322;52.230;5.702;2023-05-10T13:02:18;6.40;;;5.80;;
23718;SDS011;43322;52.230;5.702;2023-05-10T13:04:47;5.75;;;5.35;;
23718;SDS011;43322;52.230;5.702;2023-05-10T13:07:14;6.28;;;5.78;;
23718;SDS011;43322;52.230;5.702;2023-05-10T13:09:41;6.93;;;5.22;;
23718;SDS011;43322;52.230;5.702;2023-05-10T13:12:08;6.47;;;5.20;;
23718;SDS011;43322;52.230;5.702;2023-05-10T13:14:35;5.28;;;4.88;;
23718;SDS011;43322;52.230;5.702;2023-05-10T13:17:01;5.57;;;5.18;;
23718;SDS011;43322;52.230;5.702;2023-05-10T13:19:28;5.80;;;5.30;;
23718;SDS011;43322;52.230;5.702;2023-05-10T13:21:56;6.10;;;5.60;;
23718;SDS011;43322;52.230;5.702;2023-05-10T13:24:23;7.05;;;5.68;;
23718;SDS011;43322;52.230;5.702;2023-05-10T13:26:49;6.55;;;5.80;;
23718;SDS011;43322;52.230;5.702;2023-05-10T13:29:16;6.40;;;5.88;;
23718;SDS011;43322;52.230;5.702;2023-05-10T13:31:44;6.68;;;6.07;;
23718;SDS011;43322;52.230;5.702;2023-05-10T13:34:10;6.53;;;5.90;;
23718;SDS011;43322;52.230;5.702;2023-05-10T13:36:37;7.05;;;5.88;;
23718;SDS011;43322;52.230;5.702;2023-05-10T13:39:05;6.78;;;6.15;;
23718;SDS011;43322;52.230;5.702;2023-05-10T13:41:32;5.68;;;5.28;;
23718;SDS011;43322;52.230;5.702;2023-05-10T13:43:59;7.60;;;5.80;;
23718;SDS011;43322;52.230;5.702;2023-05-10T13:46:25;6.13;;;5.60;;
23718;SDS011;43322;52.230;5.702;2023-05-10T13:48:52;6.32;;;5.82;;
23718;SDS011;43322;52.230;5.702;2023-05-10T13:51:19;9.25;;;6.30;;
23718;SDS011;43322;52.230;5.702;2023-05-10T13:53:45;5.85;;;5.35;;
23718;SDS011;43322;52.230;5.702;2023-05-10T13:56:14;6.43;;;5.82;;
23718;SDS011;43322;52.230;5.702;2023-05-10T13:58:40;6.10;;;5.50;;
23718;SDS011;43322;52.230;5.702;2023-05-10T14:01:07;6.13;;;5.38;;
23718;SDS011;43322;52.230;5.702;2023-05-10T14:03:34;6.20;;;5.60;;
23718;SDS011;43322;52.230;5.702;2023-05-10T14:06:01;6.57;;;5.75;;
23718;SDS011;43322;52.230;5.702;2023-05-10T14:08:28;5.63;;;5.13;;
23718;SDS011;43322;52.230;5.702;2023-05-10T14:10:54;5.72;;;5.18;;
23718;SDS011;43322;52.230;5.702;2023-05-10T14:13:23;5.57;;;5.18;;
23718;SDS011;43322;52.230;5.702;2023-05-10T14:15:50;5.10;;;4.35;;
23718;SDS011;43322;52.230;5.702;2023-05-10T14:18:18;7.05;;;5.53;;
23718;SDS011;43322;52.230;5.702;2023-05-10T14:20:45;6.47;;;5.10;;
23718;SDS011;43322;52.230;5.702;2023-05-10T14:23:12;6.13;;;5.53;;
23718;SDS011;43322;52.230;5.702;2023-05-10T14:25:39;5.95;;;5.07;;
23718;SDS011;43322;52.230;5.702;2023-05-10T14:28:06;5.43;;;4.90;;
23718;SDS011;43322;52.230;5.702;2023-05-10T14:30:34;4.95;;;4.47;;
23718;SDS011;43322;52.230;5.702;2023-05-10T14:33:01;5.93;;;5.18;;
23718;SDS011;43322;52.230;5.702;2023-05-10T14:35:28;5.90;;;5.40;;
23718;SDS011;43322;52.230;5.702;2023-05-10T14:37:56;5.80;;;5.25;;